Biggsville, Illinois
Current Conditions -  °F | °C
As of 10:53 AM on Saturday 25 Oct 2014 (Local Time) from KBRL Reporting Station
Clear Clear  
Wind Chill: 19°   Ceiling: Unl
Heat Index: 19°   Visibility: 10mi
Dew Point: 11°   Wind: 7mph
Humidity: 60%   Direction: 350°N
Pressure: 30.05"   Gusts: NA
Location:  40.85°N, 90.86°W
Report Text: KBRL 251553Z AUTO 35006KT 10SM CLR 19/11 A3005 RMK AO2 SLP174 T01890111
Loading
Personal Weather Stations






























Interactive Weather Map
Tropical Storm Tracking
New forecast layout! Learn more

10-Day Weather Forecast

Advertisements
Track Severe Weather on mobile